WTTO2: Illinois River, Watts, OK

                                SHEF ID:       WTTO2     Illinois River near Watts, OK
STATION TYPE: Stream Gauge
Regulating: Stage = 13.00, Flow = 11165

PRECIP STAGE STAGE(2) RIV-FLOW WTR-TEMP VOLTAGE BAT-LOAD
in ft ft cfs F volt volt
Ccp-Rev Ccp-Rev Ccp-Rev Ccp-Rev Ccp-Rev Ccp-Rev Ccp-Rev
(America/Chicago)
05/06 00:00 0.00 4.77 ---- 1339 64.44 ---- 12.79
05/06 01:00 0.00 4.67 ---- 1282 64.11 ---- 12.73
05/06 02:00 0.00 4.57 ---- 1227 63.79 ---- 12.70
05/06 03:00 0.00 4.48 ---- 1178 63.45 ---- 12.67
05/06 04:00 0.00 4.41 ---- 1141 63.16 ---- 12.65
05/06 05:00 0.00 4.34 ---- 1105 62.87 ---- 12.63
05/06 06:00 0.00 4.28 ---- 1075 62.62 ---- 12.61
05/06 07:00 0.00 4.23 ---- 1050 62.38 ---- 12.60
05/06 08:00 0.00 4.49 ---- 1184 62.19 ---- 12.82
05/06 09:00 0.00 4.29 ---- 1080 62.02 ---- 13.53
05/06 10:00 0.00 4.15 ---- 1011 61.88 ---- 13.55
05/06 11:00 0.00 4.04 ---- 958 61.81 ---- 13.55
05/06 12:00 0.00 3.44 ---- 658 61.88 ---- 13.53
05/06 13:00 0.00 3.92 ---- 896 61.95 ---- 13.56
05/06 14:00 0.00 3.97 ---- 923 62.10 ---- 13.47
05/06 15:00 0.00 3.89 ---- 879 62.24 ---- 13.51
05/06 16:00 0.00 3.89 ---- 879 62.35 ---- 13.42
05/06 17:00 0.00 3.88 ---- 874 62.55 ---- 13.38
05/06 18:00 0.00 3.86 ---- 863 62.64 ---- 13.35
05/06 19:00 0.00 3.84 ---- 853 62.67 ---- 13.34
05/06 20:00 0.00 3.82 ---- 842 62.69 ---- 13.32
05/06 21:00 0.00 3.80 ---- 832 62.65 ---- 13.17
05/06 22:00 0.00 3.79 ---- 827 62.60 ---- 13.04
05/06 23:00 0.00 3.78 ---- 822 62.55 ---- 12.93
Data processed at Thu 07May2026 04:35 GMT

NOTICE: If you are parsing this page

Please convert to using our Data API. Starting early 2026 we will be migrating to: https://water.usace.army.mil with modern pages rendered in JavaScript. When this migration completes you will no longer be able to scrape this page! CWMSDataAPI (CDA)

Timeseries IDs (TSIDs)

TSIDs used from left to right in the data table
WATT.Precip-Inc.Total.1Hour.1Hour.Ccp-Rev
WATT.Stage.Inst.1Hour.0.Ccp-Rev
WATT.Stage-Alt.Inst.1Hour.0.Ccp-Rev
WATT.Flow.Inst.1Hour.0.Ccp-Rev
WATT.Temp-Water.Inst.1Hour.0.Ccp-Rev
WATT.Volt-Battery.Inst.1Hour.0.Ccp-Rev
WATT.Volt-Battery Load.Inst.1Hour.0.Ccp-Rev

                            

All information presented herein is the property of the government of the United States of America and may be revised or deleted at any time without prior notice. Dissemination of this information without the expressed written consent of the Public Affairs Office, Tulsa District U.S. Army Corps of Engineers is strictly prohibited. These data are gathered electronically and, as presented, have NOT undergone any form of quality control. These data are NOT guaranteed to be valid or correct.